Terminal Aerodrome Forecast
Issued by NWS

Home | Current Version | Previous Version | Text Only | Print | Product List | Glossary On
Versions: 1 2 3 4 5 6 7 8 9 10 11 12 13 14 15 16 17 18 19
000
FTUS42 KGSP 202325
TAFAND
TAF
KAND 202325Z 2100/2124 15004KT P6SM -SHRA SCT050 OVC120
     FM210300 VRB02KT 6SM BR SCT006 BKN012
     FM210900 00000KT 3SM BR OVC005
     FM211400 21003KT P6SM SCT025 BKN120
     FM211600 21004KT P6SM BKN040 PROB30 2118/2123 4SM -TSRA
      OVC025CB=

USA.gov is the U.S. government's official web portal to all federal, state and local government web resources and services.